Time;durP1;ratioP1;P1;durP2;ratioP2;P2;SDS_P1;SDS_P2;PMS_P1;PMS_P2;Temp;Humidity;BMP_temperature;BMP_pressure;BME280_temperature;BME280_humidity;BME280_pressure;Samples;Min_cycle;Max_cycle;Signal;HPM_P1;HPM_P2
2022/05/30 00:00:39;;;;;;;3.20;2.20;;;;;;;7.59;71.53;98041.13;5093398;28;20189;-52
2022/05/30 00:03:06;;;;;;;4.40;1.93;;;;;;;7.49;72.24;98036.00;5093471;28;20265;-52
2022/05/30 00:05:34;;;;;;;3.23;1.47;;;;;;;7.46;71.15;98041.47;5093935;28;20188;-52
2022/05/30 00:08:02;;;;;;;5.13;1.63;;;;;;;7.46;71.47;98026.69;5093101;28;20241;-52
2022/05/30 00:10:30;;;;;;;5.10;1.80;;;;;;;7.37;71.61;98022.41;5093227;28;20229;-52
2022/05/30 00:12:58;;;;;;;5.23;1.90;;;;;;;7.33;72.99;98026.25;5092384;28;20550;-52
2022/05/30 00:15:25;;;;;;;4.67;2.00;;;;;;;7.27;73.76;98016.44;5093399;28;20194;-52
2022/05/30 00:17:56;;;;;;;3.17;2.13;;;;;;;7.22;73.36;98024.66;5091804;28;20498;-52
2022/05/30 00:20:24;;;;;;;2.47;2.07;;;;;;;7.14;73.81;98008.97;5092442;28;20669;-52
2022/05/30 00:22:52;;;;;;;3.50;2.33;;;;;;;7.05;73.96;98018.44;5093071;28;20223;-52
2022/05/30 00:25:20;;;;;;;4.75;2.35;;;;;;;6.96;74.23;98019.31;5091872;28;20889;-54
2022/05/30 00:27:49;;;;;;;4.23;2.37;;;;;;;6.98;75.58;98017.38;5093036;28;20205;-52
2022/05/30 00:30:17;;;;;;;2.50;1.97;;;;;;;6.89;76.05;98019.88;5094823;28;20661;-52
2022/05/30 00:32:44;;;;;;;4.47;1.93;;;;;;;6.82;76.20;98025.78;5095833;28;20262;-52
2022/05/30 00:35:13;;;;;;;3.47;1.90;;;;;;;6.79;76.04;98014.72;5095661;28;20205;-54
2022/05/30 00:37:41;;;;;;;4.87;2.30;;;;;;;6.70;75.81;98012.97;5095082;28;20247;-53
2022/05/30 00:40:10;;;;;;;4.87;2.10;;;;;;;6.72;76.63;98008.47;5095233;28;20201;-52
2022/05/30 00:42:38;;;;;;;4.20;2.00;;;;;;;6.68;76.84;97999.34;5096678;28;20606;-53
2022/05/30 00:45:08;;;;;;;3.63;2.50;;;;;;;6.68;77.31;98003.69;5095119;28;20559;-52
2022/05/30 00:47:37;;;;;;;3.93;2.20;;;;;;;6.62;76.91;97999.91;5094983;28;20647;-53
2022/05/30 00:50:06;;;;;;;4.03;2.33;;;;;;;6.58;77.80;98008.91;5095041;28;20260;-52
2022/05/30 00:52:37;;;;;;;6.33;3.23;;;;;;;6.55;78.61;98004.81;5096975;28;20764;-54
2022/05/30 00:55:09;;;;;;;5.00;2.03;;;;;;;6.50;77.98;98004.41;5095897;28;20215;-53
2022/05/30 00:57:38;;;;;;;6.23;2.50;;;;;;;6.45;78.97;97996.25;5096051;28;20285;-53
2022/05/30 01:00:09;;;;;;;2.70;2.20;;;;;;;6.39;78.43;97997.63;5096071;28;20664;-54
2022/05/30 01:02:40;;;;;;;5.37;2.30;;;;;;;6.29;78.37;98005.44;5095398;28;20187;-53
2022/05/30 01:07:55;;;;;;;5.97;2.83;;;;;;;6.19;79.18;97986.50;5094213;28;20285;-52
2022/05/30 01:10:23;;;;;;;3.53;2.47;;;;;;;6.15;79.05;97992.91;5094810;28;20427;-53
2022/05/30 01:12:53;;;;;;;5.80;2.60;;;;;;;6.12;80.50;97991.38;5094323;28;20223;-52
2022/05/30 01:15:25;;;;;;;4.07;2.67;;;;;;;6.15;80.02;97990.31;5094599;28;20192;-54
2022/05/30 01:18:02;;;;;;;5.33;2.80;;;;;;;6.12;80.70;97988.00;5094256;28;20774;-51
2022/05/30 01:20:43;;;;;;;6.13;2.67;;;;;;;6.09;80.15;97985.69;5094207;28;20199;-52
2022/05/30 01:23:24;;;;;;;5.90;2.90;;;;;;;6.07;80.52;97982.41;5094736;28;20277;-52
2022/05/30 01:26:32;;;;;;;4.23;2.43;;;;;;;6.01;80.79;97989.78;5094749;28;20521;-54
2022/05/30 01:29:24;;;;;;;4.03;2.17;;;;;;;6.03;81.01;97977.50;5095868;28;20234;-53
2022/05/30 01:31:54;;;;;;;5.07;2.50;;;;;;;5.97;81.32;97985.78;5094353;28;20206;-52
2022/05/30 01:34:23;;;;;;;5.40;2.33;;;;;;;6.05;81.76;97991.13;5094660;28;20543;-52
2022/05/30 01:36:51;;;;;;;2.47;1.90;;;;;;;6.08;80.22;97984.84;5094368;28;20669;-53
2022/05/30 01:39:20;;;;;;;4.90;2.20;;;;;;;6.10;81.48;97987.31;5094114;28;20268;-52
2022/05/30 01:41:53;;;;;;;4.90;2.20;;;;;;;6.02;81.19;97981.03;5093779;28;20279;-52
2022/05/30 01:44:22;;;;;;;4.40;2.47;;;;;;;5.96;81.60;97976.38;5095494;28;20610;-52
2022/05/30 01:46:50;;;;;;;5.73;2.63;;;;;;;5.89;82.20;97970.13;5094027;28;20219;-52
2022/05/30 01:49:18;;;;;;;6.27;2.90;;;;;;;5.89;81.96;97975.28;5093826;28;20269;-54
2022/05/30 01:51:47;;;;;;;3.63;2.60;;;;;;;5.76;81.68;97970.41;5094688;28;20306;-52
2022/05/30 01:54:15;;;;;;;6.33;2.17;;;;;;;5.72;82.20;97974.22;5094239;28;20223;-52
2022/05/30 01:57:20;;;;;;;5.80;2.57;;;;;;;5.69;82.23;97966.72;5072793;28;20222;-53
2022/05/30 02:00:11;;;;;;;4.50;2.53;;;;;;;5.66;83.04;97975.56;5095113;28;20196;-52
2022/05/30 02:02:49;;;;;;;3.60;2.43;;;;;;;5.66;84.04;97969.56;5095181;28;20191;-53
2022/05/30 02:05:17;;;;;;;7.97;2.73;;;;;;;5.62;83.03;97966.44;5096987;28;20227;-53
2022/05/30 02:07:44;;;;;;;3.77;2.40;;;;;;;5.56;82.86;97970.38;5094353;28;20761;-53
2022/05/30 02:10:18;;;;;;;4.30;1.90;;;;;;;5.52;81.58;97976.78;5093738;28;20215;-52
2022/05/30 02:12:47;;;;;;;4.40;1.90;;;;;;;5.57;81.83;97966.84;5093356;28;20230;-52
2022/05/30 02:15:25;;;;;;;7.67;2.23;;;;;;;5.47;81.44;97972.00;5093795;28;20674;-53
2022/05/30 02:17:56;;;;;;;7.00;2.13;;;;;;;5.41;82.32;97972.53;5093177;28;20219;-52
2022/05/30 02:20:24;;;;;;;6.43;2.20;;;;;;;5.40;82.26;97973.47;5093406;28;20202;-52
2022/05/30 02:22:50;;;;;;;3.27;2.27;;;;;;;5.39;81.91;97963.28;5094862;28;20262;-52
2022/05/30 02:25:18;;;;;;;4.07;2.33;;;;;;;5.32;82.27;97960.38;5093616;28;20927;-52
2022/05/30 02:27:45;;;;;;;6.17;2.43;;;;;;;5.38;82.82;97962.44;5093004;28;20216;-52
2022/05/30 02:30:13;;;;;;;5.60;2.20;;;;;;;5.37;82.16;97965.19;5093063;28;20195;-52
2022/05/30 02:32:43;;;;;;;4.80;2.40;;;;;;;5.32;83.10;97956.06;5094229;28;20210;-52
2022/05/30 02:37:55;;;;;;;4.73;2.30;;;;;;;5.30;83.05;97959.72;5092718;28;20207;-52
2022/05/30 02:40:45;;;;;;;5.07;2.17;;;;;;;5.27;83.10;97960.81;5094270;28;20191;-52
2022/05/30 02:43:31;;;;;;;3.20;2.30;;;;;;;5.29;83.54;97960.69;5094639;28;20276;-52
2022/05/30 02:45:58;;;;;;;4.03;2.00;;;;;;;5.20;82.69;97959.69;5092808;28;20198;-52
2022/05/30 02:48:26;;;;;;;5.03;2.37;;;;;;;5.21;82.37;97965.72;5092599;28;20298;-52
2022/05/30 02:50:54;;;;;;;6.53;2.03;;;;;;;5.17;83.13;97955.63;5092649;28;20193;-52
2022/05/30 02:53:21;;;;;;;5.27;2.13;;;;;;;5.11;82.16;97960.50;5091851;28;20197;-53
2022/05/30 02:56:12;;;;;;;3.50;2.00;;;;;;;5.13;83.34;97959.44;5093864;28;20302;-53
2022/05/30 02:58:40;;;;;;;2.97;2.03;;;;;;;5.03;83.12;97956.78;5092412;28;20208;-52
2022/05/30 03:01:07;;;;;;;5.67;2.10;;;;;;;4.97;82.92;97961.69;5093785;28;20659;-52
2022/05/30 03:03:36;;;;;;;9.37;2.87;;;;;;;4.90;82.98;97968.34;5092347;28;20230;-52
2022/05/30 03:06:04;;;;;;;4.33;2.33;;;;;;;5.08;84.30;97968.50;5092587;28;20222;-52
2022/05/30 03:08:32;;;;;;;3.30;2.23;;;;;;;5.00;83.71;97956.25;5092353;28;20215;-52
2022/05/30 03:11:21;;;;;;;4.07;2.20;;;;;;;4.95;83.86;97966.19;5093500;28;20612;-52
2022/05/30 03:13:49;;;;;;;4.37;2.27;;;;;;;4.93;82.94;97970.66;5092738;28;20555;-54
2022/05/30 03:16:17;;;;;;;4.77;2.37;;;;;;;4.88;83.88;97971.03;5092254;28;20281;-51
2022/05/30 03:18:47;;;;;;;5.83;1.93;;;;;;;4.95;83.52;97973.94;5092129;28;20239;-52
2022/05/30 03:21:14;;;;;;;3.37;2.20;;;;;;;4.95;83.31;97974.75;5092410;28;20558;-52
2022/05/30 03:23:42;;;;;;;6.73;2.47;;;;;;;4.96;84.19;97978.16;5092406;28;20190;-52
2022/05/30 03:26:13;;;;;;;3.60;2.43;;;;;;;4.98;83.73;97984.03;5092748;28;20704;-53
2022/05/30 03:28:41;;;;;;;2.97;2.10;;;;;;;4.92;83.04;97985.34;5091569;28;20209;-53
2022/05/30 03:31:08;;;;;;;4.97;2.00;;;;;;;4.93;82.27;97979.22;5093910;28;20706;-54
2022/05/30 03:33:37;;;;;;;3.80;1.90;;;;;;;4.92;81.34;97987.94;5092075;28;20195;-53
2022/05/30 03:36:13;;;;;;;3.53;1.97;;;;;;;4.89;81.94;97983.03;5093630;28;20579;-52
2022/05/30 03:39:01;;;;;;;4.47;2.17;;;;;;;5.04;83.27;97983.50;5092312;28;20243;-53
2022/05/30 03:41:31;;;;;;;3.17;1.93;;;;;;;5.03;82.04;97981.84;5093404;28;20215;-54
2022/05/30 03:44:22;;;;;;;6.40;2.67;;;;;;;5.03;81.19;97995.59;5073802;28;20579;-52
2022/05/30 03:46:49;;;;;;;4.43;2.10;;;;;;;5.01;81.95;97992.31;5091796;28;20683;-53
2022/05/30 03:49:16;;;;;;;2.20;1.67;;;;;;;5.06;81.67;97983.34;5091348;28;20726;-52
2022/05/30 03:51:44;;;;;;;6.70;1.90;;;;;;;5.12;81.30;97990.59;5092115;28;20210;-52
2022/05/30 03:54:12;;;;;;;3.07;2.13;;;;;;;5.07;81.16;97993.59;5092150;28;20222;-53
2022/05/30 03:56:40;;;;;;;3.87;2.00;;;;;;;5.13;81.73;97987.88;5091941;28;20201;-52
2022/05/30 03:59:25;;;;;;;5.30;2.00;;;;;;;5.07;81.30;97990.16;5093373;28;20202;-52
2022/05/30 04:01:53;;;;;;;5.67;2.00;;;;;;;5.05;80.99;97992.91;5092039;28;20213;-54
2022/05/30 04:04:20;;;;;;;3.47;2.17;;;;;;;5.03;82.37;97994.78;5093519;28;20664;-52
2022/05/30 04:06:51;;;;;;;4.67;1.80;;;;;;;5.05;81.63;97985.13;5096256;28;20215;-54
2022/05/30 04:09:19;;;;;;;3.93;2.17;;;;;;;5.09;82.08;97988.25;5095524;28;20240;-52
2022/05/30 04:12:06;;;;;;;4.43;2.00;;;;;;;5.10;82.24;97982.13;5097153;28;20211;-52
2022/05/30 04:14:55;;;;;;;5.37;1.90;;;;;;;5.15;81.37;97987.75;5097326;28;20199;-52
2022/05/30 04:17:28;;;;;;;4.30;2.10;;;;;;;5.21;82.65;97983.81;5096060;28;20223;-54
2022/05/30 04:19:56;;;;;;;7.53;2.10;;;;;;;5.26;83.11;97981.66;5097384;28;20265;-52
2022/05/30 04:22:25;;;;;;;4.67;2.10;;;;;;;5.31;82.61;97982.88;5095853;28;20219;-53
2022/05/30 04:25:11;;;;;;;4.60;2.00;;;;;;;5.29;82.53;97989.97;5095938;28;20194;-52
2022/05/30 04:27:41;;;;;;;3.83;2.00;;;;;;;5.30;82.49;97990.78;5095620;28;20280;-52
2022/05/30 04:30:09;;;;;;;5.93;2.70;;;;;;;5.35;82.86;97993.78;5095718;28;20224;-52
2022/05/30 04:32:50;;;;;;;4.33;1.73;;;;;;;5.37;83.61;97989.28;5095569;28;20204;-52
2022/05/30 04:35:19;;;;;;;5.13;1.93;;;;;;;5.40;83.78;97995.97;5095199;28;20282;-53
2022/05/30 04:37:49;;;;;;;3.97;2.03;;;;;;;5.42;83.15;98005.22;5097486;28;20568;-53
2022/05/30 04:40:34;;;;;;;7.23;2.57;;;;;;;5.47;83.03;98010.81;5098892;28;20210;-55
2022/05/30 04:43:20;;;;;;;6.47;2.43;;;;;;;5.50;82.64;98012.34;5100217;28;20194;-54
2022/05/30 04:46:07;;;;;;;5.67;2.80;;;;;;;5.50;82.29;98006.34;5099333;28;20203;-53
2022/05/30 04:48:47;;;;;;;2.37;2.00;;;;;;;5.52;81.68;98009.59;5095463;28;20302;-52
2022/05/30 04:51:15;;;;;;;5.13;2.50;;;;;;;5.51;81.67;98010.56;5095731;28;20186;-52
2022/05/30 04:53:44;;;;;;;2.73;2.17;;;;;;;5.53;82.80;98016.41;5095806;28;20560;-52
2022/05/30 04:56:12;;;;;;;6.10;2.20;;;;;;;5.51;82.59;98019.16;5096616;28;20319;-54
2022/05/30 04:58:58;;;;;;;6.33;2.10;;;;;;;5.60;82.98;98020.13;5096419;28;20576;-52
2022/05/30 05:01:27;;;;;;;5.67;2.20;;;;;;;5.63;82.45;98019.84;5094732;28;20192;-54
2022/05/30 05:03:54;;;;;;;6.33;2.10;;;;;;;5.70;82.15;98030.50;5095198;28;20245;-53
2022/05/30 05:06:23;;;;;;;2.20;1.80;;;;;;;5.74;83.02;98026.69;5095029;28;20198;-52
2022/05/30 05:08:59;;;;;;;4.13;2.50;;;;;;;5.75;82.43;98034.31;5094489;28;20211;-52
2022/05/30 05:11:36;;;;;;;4.93;2.37;;;;;;;5.79;82.27;98032.28;5097215;28;20223;-52
2022/05/30 05:14:23;;;;;;;2.90;1.90;;;;;;;5.81;82.06;98035.56;5095996;28;20229;-52
2022/05/30 05:17:10;;;;;;;4.77;1.80;;;;;;;5.84;82.32;98042.22;5094571;28;20243;-52
2022/05/30 05:19:39;;;;;;;4.37;2.37;;;;;;;5.93;82.08;98046.59;5094585;28;20187;-53
2022/05/30 05:22:07;;;;;;;4.73;2.30;;;;;;;5.95;82.66;98029.16;5095150;28;20550;-52
2022/05/30 05:24:37;;;;;;;4.80;2.20;;;;;;;5.96;82.88;98030.78;5095341;28;20281;-53
2022/05/30 05:27:15;;;;;;;6.13;2.27;;;;;;;6.02;82.77;98037.22;5096329;28;20187;-53
2022/05/30 05:29:43;;;;;;;2.93;2.17;;;;;;;6.08;81.63;98041.84;5094761;28;20557;-52
2022/05/30 05:32:10;;;;;;;7.37;2.20;;;;;;;6.15;81.39;98036.97;5095864;28;20212;-52
2022/05/30 05:34:39;;;;;;;5.17;1.97;;;;;;;6.20;81.33;98045.94;5095718;28;20189;-52
2022/05/30 05:37:24;;;;;;;3.67;2.53;;;;;;;6.32;81.18;98044.03;5096350;28;20213;-52
2022/05/30 05:40:13;;;;;;;3.13;2.00;;;;;;;6.45;80.34;98048.09;5095686;28;20203;-53
2022/05/30 05:42:40;;;;;;;2.57;2.17;;;;;;;6.53;81.13;98052.59;5094554;28;20188;-54
2022/05/30 05:45:10;;;;;;;4.83;2.03;;;;;;;6.68;80.40;98055.56;5094565;28;20203;-54
2022/05/30 05:47:38;;;;;;;5.00;2.00;;;;;;;6.89;80.21;98045.81;5093863;28;20613;-53
2022/05/30 05:50:07;;;;;;;2.53;2.10;;;;;;;7.19;80.11;98053.47;5094208;28;20656;-53
2022/05/30 05:52:34;;;;;;;5.27;2.30;;;;;;;7.48;78.11;98049.94;5093755;28;20221;-52
2022/05/30 05:55:11;;;;;;;2.93;2.20;;;;;;;7.76;77.20;98055.91;5094474;28;20279;-54
2022/05/30 05:57:39;;;;;;;5.83;1.97;;;;;;;8.00;76.51;98062.31;5093676;28;20213;-52
2022/05/30 06:00:07;;;;;;;3.87;1.87;;;;;;;8.26;74.81;98061.56;5093924;28;20203;-53
2022/05/30 06:02:45;;;;;;;3.27;1.97;;;;;;;8.50;74.22;98066.16;5096297;28;20549;-53
2022/05/30 06:05:17;;;;;;;4.13;1.80;;;;;;;8.69;74.03;98072.16;5095140;28;20190;-52
2022/05/30 06:08:04;;;;;;;3.57;2.10;;;;;;;8.98;73.46;98079.66;5095844;28;20213;-54
2022/05/30 06:11:08;;;;;;;4.87;1.60;;;;;;;9.24;71.83;98084.03;5092457;28;20716;-53
2022/05/30 06:13:41;;;;;;;3.23;1.83;;;;;;;9.29;71.06;98083.53;5094102;28;20303;-53
2022/05/30 06:16:12;;;;;;;4.03;2.40;;;;;;;9.49;70.60;98083.31;5096105;28;20257;-54
2022/05/30 06:18:49;;;;;;;4.53;2.00;;;;;;;9.64;70.71;98089.56;5094216;28;20212;-52
2022/05/30 06:21:18;;;;;;;4.40;2.00;;;;;;;9.76;69.01;98087.44;5093483;28;20197;-53
2022/05/30 06:23:48;;;;;;;5.80;2.20;;;;;;;10.00;69.05;98091.94;5094486;28;20942;-52
2022/05/30 06:26:34;;;;;;;6.10;2.17;;;;;;;10.19;68.88;98101.25;5095099;28;20200;-52
2022/05/30 06:29:21;;;;;;;3.43;2.10;;;;;;;10.39;67.63;98098.34;5094842;28;20267;-52
2022/05/30 06:31:49;;;;;;;5.53;1.93;;;;;;;10.54;67.93;98101.13;5094544;28;20204;-54
2022/05/30 06:34:17;;;;;;;6.33;2.00;;;;;;;10.62;67.18;98101.13;5094849;28;20214;-55
2022/05/30 06:36:45;;;;;;;3.10;1.90;;;;;;;10.75;67.58;98105.81;5095646;28;20215;-55
2022/05/30 06:39:14;;;;;;;5.40;2.50;;;;;;;10.88;63.47;98107.13;5096299;28;20565;-54
2022/05/30 06:41:48;;;;;;;4.73;2.50;;;;;;;10.89;61.76;98106.97;5095521;28;20191;-54
2022/05/30 06:44:15;;;;;;;3.60;2.10;;;;;;;10.87;64.83;98114.16;5095561;28;20191;-54
2022/05/30 06:47:03;;;;;;;4.87;2.20;;;;;;;10.92;65.29;98109.25;5095404;28;20390;-54
2022/05/30 06:49:51;;;;;;;3.80;2.20;;;;;;;11.19;65.24;98111.63;5095225;28;20200;-52
2022/05/30 06:52:24;;;;;;;0.00;0.00;;;;;;;11.30;61.78;98113.88;5093352;28;20216;-52
2022/05/30 06:54:52;;;;;;;0.00;0.00;;;;;;;11.43;60.00;98112.53;5093551;28;20189;-50
2022/05/30 07:00:05;;;;;;;0.00;0.00;;;;;;;11.67;60.02;98117.66;5063045;28;20194;-50
2022/05/30 07:02:37;;;;;;;0.00;0.00;;;;;;;11.74;58.15;98128.25;5093084;28;20308;-52
2022/05/30 07:05:08;;;;;;;0.00;0.00;;;;;;;11.75;58.11;98127.28;5094986;28;20186;-52
2022/05/30 07:07:58;;;;;;;0.00;0.00;;;;;;;11.74;59.79;98128.25;5094262;28;20226;-50
2022/05/30 07:10:46;;;;;;;0.00;0.00;;;;;;;12.04;59.60;98133.69;5094164;28;20208;-53
2022/05/30 07:13:20;;;;;;;0.00;0.00;;;;;;;12.01;59.94;98131.44;5093552;28;20214;-50
2022/05/30 07:15:50;;;;;;;0.00;0.00;;;;;;;12.23;58.71;98134.22;5093201;28;20190;-50
2022/05/30 07:18:30;;;;;;;0.00;0.00;;;;;;;12.26;57.82;98131.25;5093830;28;20216;-50
2022/05/30 07:21:00;;;;;;;0.00;0.00;;;;;;;12.37;58.91;98127.44;5093008;28;20597;-51
2022/05/30 07:23:28;;;;;;;0.00;0.00;;;;;;;12.39;57.56;98131.50;5094687;28;20588;-53
2022/05/30 07:26:19;;;;;;;0.00;0.00;;;;;;;12.31;58.31;98126.31;5093778;28;20195;-53
2022/05/30 07:29:06;;;;;;;0.00;0.00;;;;;;;12.55;58.56;98130.56;5093890;28;20822;-53
2022/05/30 07:31:52;;;;;;;0.00;0.00;;;;;;;12.70;57.53;98135.03;5094205;28;20206;-53
2022/05/30 07:34:39;;;;;;;0.00;0.00;;;;;;;12.79;58.76;98133.16;5094381;28;20235;-54
2022/05/30 07:37:24;;;;;;;0.00;0.00;;;;;;;12.94;58.31;98138.41;5094113;28;20214;-53
2022/05/30 07:40:12;;;;;;;0.00;0.00;;;;;;;12.85;59.24;98130.63;5093615;28;20203;-52
2022/05/30 07:43:02;;;;;;;0.00;0.00;;;;;;;13.08;58.62;98132.38;5064916;28;20218;-53
2022/05/30 07:45:46;;;;;;;0.00;0.00;;;;;;;13.13;58.02;98130.03;5092854;28;20189;-55
2022/05/30 07:48:34;;;;;;;0.00;0.00;;;;;;;13.19;58.68;98128.53;5082585;28;20215;-53
2022/05/30 07:51:16;;;;;;;0.00;0.00;;;;;;;13.23;59.64;98128.97;5092437;28;20716;-53
2022/05/30 07:54:03;;;;;;;0.00;0.00;;;;;;;13.32;59.39;98129.69;5092288;28;20217;-50
2022/05/30 07:56:44;;;;;;;0.00;0.00;;;;;;;13.35;59.53;98135.38;5092330;28;20190;-50
2022/05/30 07:59:12;;;;;;;0.00;0.00;;;;;;;13.49;59.84;98135.59;5091754;28;20209;-53
2022/05/30 08:01:40;;;;;;;0.00;0.00;;;;;;;13.37;59.14;98130.78;5092380;28;20276;-52
2022/05/30 08:04:12;;;;;;;0.00;0.00;;;;;;;13.19;59.02;98135.56;5093054;28;20213;-52
2022/05/30 08:07:01;;;;;;;0.00;0.00;;;;;;;12.85;60.66;98128.00;5052715;28;20248;-54
2022/05/30 08:09:52;;;;;;;0.00;0.00;;;;;;;12.57;61.99;98126.97;5064781;28;20742;-53
2022/05/30 08:12:24;;;;;;;0.00;0.00;;;;;;;12.54;63.04;98128.94;5092878;28;20213;-51
2022/05/30 08:14:58;;;;;;;0.00;0.00;;;;;;;12.85;62.25;98135.06;5093948;28;20188;-51
2022/05/30 08:17:57;;;;;;;0.00;0.00;;;;;;;13.11;62.70;98126.78;5093742;28;20259;-53
2022/05/30 08:20:27;;;;;;;0.00;0.00;;;;;;;13.34;62.06;98131.13;5092356;28;20209;-53
2022/05/30 08:22:55;;;;;;;0.00;0.00;;;;;;;13.60;61.08;98127.28;5092448;28;20223;-51
2022/05/30 08:25:24;;;;;;;0.00;0.00;;;;;;;13.71;59.91;98134.69;5092331;28;20184;-51
2022/05/30 08:27:51;;;;;;;0.00;0.00;;;;;;;13.85;59.55;98133.03;5093013;28;20276;-52
2022/05/30 08:30:20;;;;;;;0.00;0.00;;;;;;;13.93;58.73;98131.28;5092335;28;20213;-51
2022/05/30 08:33:10;;;;;;;0.00;0.00;;;;;;;14.02;58.68;98128.34;5092037;28;20405;-51
2022/05/30 08:36:02;;;;;;;0.00;0.00;;;;;;;14.20;56.16;98131.56;5092919;28;20270;-50
2022/05/30 08:38:33;;;;;;;0.00;0.00;;;;;;;14.13;55.44;98137.56;5091071;28;20306;-50
2022/05/30 08:43:50;;;;;;;0.00;0.00;;;;;;;14.31;55.24;98133.69;5092084;28;20724;-53
2022/05/30 08:46:36;;;;;;;0.00;0.00;;;;;;;14.05;56.14;98128.97;5091757;28;20195;-50
2022/05/30 08:49:23;;;;;;;0.00;0.00;;;;;;;13.97;54.49;98132.53;5091787;28;20213;-51
2022/05/30 08:52:28;;;;;;;0.00;0.00;;;;;;;14.08;54.09;98144.34;5093630;28;20193;-52
2022/05/30 08:55:07;;;;;;;0.00;0.00;;;;;;;14.05;54.39;98139.47;5084747;28;20310;-50
2022/05/30 08:57:50;;;;;;;0.00;0.00;;;;;;;13.96;54.10;98136.97;5095845;28;20260;-50
2022/05/30 09:00:24;;;;;;;0.00;0.00;;;;;;;14.14;53.81;98139.19;5095105;28;20189;-52
2022/05/30 09:03:34;;;;;;;0.00;0.00;;;;;;;14.59;51.95;98141.63;5034132;28;20199;-50
2022/05/30 09:06:05;;;;;;;0.00;0.00;;;;;;;14.69;50.93;98143.97;5083760;28;20193;-50
2022/05/30 09:08:39;;;;;;;0.00;0.00;;;;;;;14.72;51.49;98145.41;5095491;28;20294;-50
2022/05/30 09:11:47;;;;;;;0.00;0.00;;;;;;;14.78;50.25;98136.78;5034466;28;20195;-51
2022/05/30 09:14:26;;;;;;;0.00;0.00;;;;;;;14.88;50.96;98145.13;5083472;28;20239;-51
2022/05/30 09:16:59;;;;;;;0.00;0.00;;;;;;;15.04;49.43;98141.41;5095286;28;20193;-50
2022/05/30 09:19:29;;;;;;;0.00;0.00;;;;;;;15.12;47.82;98137.81;5095099;28;20207;-50
2022/05/30 09:22:01;;;;;;;0.00;0.00;;;;;;;15.45;49.51;98137.19;5095343;28;20220;-51
2022/05/30 09:24:35;;;;;;;0.00;0.00;;;;;;;15.60;46.88;98133.63;5094730;28;20196;-52
2022/05/30 09:27:06;;;;;;;0.00;0.00;;;;;;;15.78;48.06;98146.25;5093969;28;20658;-53
2022/05/30 09:29:49;;;;;;;0.00;0.00;;;;;;;15.58;46.42;98133.81;5094289;28;20281;-53
2022/05/30 09:32:45;;;;;;;0.00;0.00;;;;;;;15.71;45.63;98140.16;5096283;28;20716;-53
2022/05/30 09:35:43;;;;;;;0.00;0.00;;;;;;;15.69;42.78;98129.00;5095840;28;20712;-50
2022/05/30 09:38:28;;;;;;;0.00;0.00;;;;;;;15.48;43.48;98138.63;5096076;28;20212;-50
2022/05/30 09:41:14;;;;;;;0.00;0.00;;;;;;;15.29;45.83;98137.50;5095105;28;20195;-52
2022/05/30 09:44:04;;;;;;;0.00;0.00;;;;;;;15.32;42.47;98132.69;5096721;28;20180;-52
2022/05/30 09:46:37;;;;;;;0.00;0.00;;;;;;;15.19;40.14;98127.34;5095383;28;20201;-50
2022/05/30 09:49:40;;;;;;;0.00;0.00;;;;;;;15.57;40.94;98126.13;5023333;28;20207;-50
2022/05/30 09:52:26;;;;;;;0.00;0.00;;;;;;;15.93;39.65;98131.16;5094934;28;20189;-51
2022/05/30 09:54:55;;;;;;;0.00;0.00;;;;;;;16.04;39.11;98127.13;5094015;28;20219;-52
2022/05/30 09:57:28;;;;;;;0.00;0.00;;;;;;;16.27;37.91;98139.13;5094182;28;20209;-50
2022/05/30 10:00:35;;;;;;;0.00;0.00;;;;;;;16.18;39.50;98128.00;5094586;28;20194;-51
2022/05/30 10:03:07;;;;;;;0.00;0.00;;;;;;;16.56;38.73;98129.25;5093810;28;20190;-52
2022/05/30 10:05:35;;;;;;;0.00;0.00;;;;;;;16.73;37.34;98115.69;5095252;28;20209;-50
2022/05/30 10:08:07;;;;;;;0.00;0.00;;;;;;;16.87;38.95;98129.66;5093379;28;20297;-51
2022/05/30 10:10:56;;;;;;;3.47;1.60;;;;;;;16.75;36.94;98132.09;5094423;28;20190;-53
2022/05/30 10:13:35;;;;;;;5.00;1.70;;;;;;;16.94;37.47;98119.91;5094445;28;20698;-50
2022/05/30 10:16:33;;;;;;;3.30;1.70;;;;;;;16.93;36.25;98121.75;5096328;28;20193;-50
2022/05/30 10:19:04;;;;;;;6.53;1.53;;;;;;;17.03;38.41;98131.91;5093402;28;20294;-51
2022/05/30 10:28:36;;;;;;;3.73;1.70;;;;;;;17.19;36.95;98128.00;5067686;28;20214;-52
2022/05/30 10:31:42;;;;;;;2.83;1.73;;;;;;;16.86;36.98;98135.94;5094759;28;20205;-52
2022/05/30 10:34:53;;;;;;;3.30;1.53;;;;;;;16.24;36.52;98139.53;5093475;28;20283;-53
2022/05/30 10:37:47;;;;;;;5.10;1.60;;;;;;;16.69;36.86;98136.34;5047168;28;20218;-52
2022/05/30 10:40:29;;;;;;;3.40;1.60;;;;;;;17.26;37.04;98142.00;5093513;28;20192;-50
2022/05/30 10:43:03;;;;;;;2.27;1.50;;;;;;;17.41;35.50;98136.50;5093087;28;20214;-51
2022/05/30 10:45:41;;;;;;;2.77;1.30;;;;;;;16.91;36.23;98131.69;5093572;28;20202;-51
2022/05/30 10:48:19;;;;;;;3.00;1.43;;;;;;;17.17;38.75;98145.88;5092957;28;20298;-51
2022/05/30 10:50:54;;;;;;;3.23;1.60;;;;;;;17.06;36.97;98128.84;5093480;28;20197;-50
2022/05/30 10:53:32;;;;;;;2.47;1.80;;;;;;;17.47;37.35;98137.47;5092730;28;20667;-50
2022/05/30 10:56:21;;;;;;;2.23;1.70;;;;;;;17.74;34.87;98136.56;5094459;28;20202;-51
2022/05/30 10:59:04;;;;;;;3.20;1.83;;;;;;;17.77;35.51;98144.06;5092545;28;20219;-50
2022/05/30 11:01:45;;;;;;;3.43;1.50;;;;;;;17.48;35.47;98136.47;5092594;28;20191;-52
2022/05/30 11:04:26;;;;;;;3.50;1.40;;;;;;;17.70;37.12;98139.63;5092826;28;20239;-50
2022/05/30 11:06:59;;;;;;;4.70;2.00;;;;;;;17.74;37.11;98140.03;5092905;28;20213;-53
2022/05/30 11:09:34;;;;;;;5.90;2.00;;;;;;;17.70;36.13;98138.84;5092619;28;20195;-50
2022/05/30 11:12:06;;;;;;;5.70;1.43;;;;;;;17.63;37.77;98132.78;5093249;28;20206;-51
2022/05/30 11:14:43;;;;;;;3.77;1.40;;;;;;;17.45;37.24;98147.44;5092565;28;20286;-53
2022/05/30 11:17:34;;;;;;;4.00;1.60;;;;;;;17.56;35.96;98143.34;5095026;28;20368;-53
2022/05/30 11:20:47;;;;;;;3.63;1.70;;;;;;;18.19;36.10;98151.63;5032348;28;20684;-53
2022/05/30 11:23:15;;;;;;;2.57;1.87;;;;;;;18.36;34.01;98152.75;5014905;28;20188;-52
2022/05/30 11:26:06;;;;;;;4.33;1.60;;;;;;;18.13;34.99;98154.09;5064282;28;20197;-51
2022/05/30 11:28:52;;;;;;;3.70;1.80;;;;;;;18.16;34.42;98152.88;5093989;28;20207;-52
2022/05/30 11:31:23;;;;;;;5.33;1.50;;;;;;;18.28;34.69;98147.69;5094326;28;20184;-53
2022/05/30 11:34:14;;;;;;;2.80;1.63;;;;;;;18.43;34.88;98150.06;5092683;28;20209;-51
2022/05/30 11:37:12;;;;;;;3.87;1.37;;;;;;;18.65;35.64;98144.41;5093765;28;20184;-50
2022/05/30 11:39:56;;;;;;;3.63;1.67;;;;;;;18.74;35.02;98154.50;5093254;28;20470;-51
2022/05/30 11:42:35;;;;;;;4.03;1.63;;;;;;;18.47;34.36;98147.78;5093632;28;20195;-51
2022/05/30 11:45:14;;;;;;;3.33;1.60;;;;;;;18.20;34.90;98151.41;5094597;28;20231;-51
2022/05/30 11:47:51;;;;;;;3.50;1.60;;;;;;;17.68;35.18;98152.22;5093504;28;20313;-52
2022/05/30 11:50:30;;;;;;;3.47;1.47;;;;;;;17.15;35.51;98150.53;5094047;28;20184;-51
2022/05/30 11:53:33;;;;;;;3.83;1.97;;;;;;;17.23;36.67;98146.88;5094698;28;20184;-53
2022/05/30 11:56:11;;;;;;;5.00;1.60;;;;;;;17.55;35.95;98147.81;5092514;28;20648;-50
2022/05/30 11:59:03;;;;;;;4.03;1.80;;;;;;;17.48;36.00;98149.66;5092137;28;20245;-50
2022/05/30 12:01:32;;;;;;;2.77;1.40;;;;;;;18.09;36.15;98162.66;5093828;28;20227;-51
2022/05/30 12:04:32;;;;;;;6.03;1.60;;;;;;;18.15;34.41;98153.88;5094316;28;20203;-51
2022/05/30 12:07:22;;;;;;;4.77;1.60;;;;;;;18.73;32.41;98160.00;5093240;28;20192;-50
2022/05/30 12:10:07;;;;;;;3.27;2.10;;;;;;;18.92;36.43;98160.06;5092180;28;20198;-53
2022/05/30 12:12:48;;;;;;;4.13;1.57;;;;;;;19.57;35.25;98154.34;5093306;28;20184;-50
2022/05/30 12:15:41;;;;;;;2.83;1.57;;;;;;;19.87;33.21;98158.91;5092682;28;20205;-52
2022/05/30 12:24:22;;;;;;;4.00;1.65;;;;;;;19.56;35.05;98162.53;5071941;28;20429;-51
2022/05/30 12:27:02;;;;;;;1.60;1.40;;;;;;;19.61;32.79;98160.84;5097290;28;20549;-50
2022/05/30 12:29:50;;;;;;;1.93;1.30;;;;;;;19.40;32.74;98164.72;5096765;28;20295;-51
2022/05/30 12:32:34;;;;;;;2.17;1.27;;;;;;;19.55;34.00;98132.59;5097020;28;20661;-52
2022/05/30 12:35:29;;;;;;;3.17;1.40;;;;;;;19.55;32.79;98152.97;5097496;28;20220;-50
2022/05/30 12:38:18;;;;;;;4.70;1.60;;;;;;;19.00;32.72;98157.16;5096151;28;20214;-51
2022/05/30 12:41:15;;;;;;;4.87;1.70;;;;;;;19.23;33.22;98151.25;5097396;28;20186;-53
2022/05/30 12:43:46;;;;;;;3.47;1.57;;;;;;;19.58;31.77;98158.63;5097370;28;20189;-50
2022/05/30 12:46:51;;;;;;;3.70;1.27;;;;;;;19.35;33.44;98155.81;5097120;28;20204;-50